createdAt,value
2023-05-12T00:01:25.242Z,8.63
2023-05-12T00:03:53.836Z,8.30
2023-05-12T00:06:22.008Z,9.30
2023-05-12T00:08:49.787Z,8.85
2023-05-12T00:11:18.885Z,10.18
2023-05-12T00:13:46.713Z,11.15
2023-05-12T00:16:15.852Z,10.15
2023-05-12T00:18:43.661Z,10.85
2023-05-12T00:21:12.255Z,9.25
2023-05-12T00:23:40.090Z,8.65
2023-05-12T00:26:08.165Z,9.52
2023-05-12T00:28:37.270Z,9.18
2023-05-12T00:31:05.316Z,9.30
2023-05-12T00:33:33.141Z,9.98
2023-05-12T00:36:03.332Z,9.35
2023-05-12T00:38:31.134Z,9.57
2023-05-12T00:40:59.949Z,9.30
2023-05-12T00:43:27.688Z,10.57
2023-05-12T00:45:57.653Z,10.02
2023-05-12T00:48:25.608Z,9.93
2023-05-12T00:50:53.406Z,11.35
2023-05-12T00:53:21.125Z,11.00
2023-05-12T00:55:48.884Z,12.02
2023-05-12T00:58:16.863Z,10.80
2023-05-12T01:00:44.609Z,10.68
2023-05-12T01:03:14.100Z,9.77
2023-05-12T01:05:50.129Z,10.63
2023-05-12T01:10:46.130Z,9.75
2023-05-12T01:13:13.985Z,10.27
2023-05-12T01:15:47.618Z,10.60
2023-05-12T01:18:20.393Z,8.95
2023-05-12T01:20:49.174Z,10.38
2023-05-12T01:23:20.470Z,11.00
2023-05-12T01:25:51.044Z,10.30
2023-05-12T01:28:21.132Z,11.07
2023-05-12T01:30:49.942Z,10.00
2023-05-12T01:33:17.917Z,9.60
2023-05-12T01:35:45.759Z,10.18
2023-05-12T01:38:13.508Z,10.35
2023-05-12T01:40:41.240Z,8.55
2023-05-12T01:43:09.022Z,7.68
2023-05-12T01:45:38.587Z,8.50
2023-05-12T01:48:06.788Z,8.85
2023-05-12T01:50:34.566Z,8.20
2023-05-12T01:53:02.297Z,8.63
2023-05-12T01:55:29.973Z,8.18
2023-05-12T01:57:57.644Z,7.97
2023-05-12T02:00:25.526Z,8.82
2023-05-12T02:02:54.743Z,7.60
2023-05-12T02:05:22.473Z,8.23
2023-05-12T02:07:50.250Z,7.80
2023-05-12T02:10:18.552Z,7.03
2023-05-12T02:12:46.455Z,7.45
2023-05-12T02:15:14.210Z,7.03
2023-05-12T02:17:41.985Z,7.90
2023-05-12T02:20:12.892Z,7.68
2023-05-12T02:22:40.650Z,7.38
2023-05-12T02:25:09.185Z,8.23
2023-05-12T02:27:36.954Z,7.80
2023-05-12T02:30:05.301Z,8.65
2023-05-12T02:32:33.561Z,8.13
2023-05-12T02:35:01.473Z,8.90
2023-05-12T02:37:30.516Z,7.82
2023-05-12T02:39:58.283Z,9.02
2023-05-12T02:42:28.714Z,8.27
2023-05-12T02:44:56.431Z,9.07
2023-05-12T02:47:24.245Z,9.15
2023-05-12T02:49:52.026Z,8.43
2023-05-12T02:52:19.734Z,8.68
2023-05-12T02:54:48.775Z,9.38
2023-05-12T02:57:16.498Z,9.18
2023-05-12T02:59:44.261Z,9.65
2023-05-12T03:02:12.108Z,9.13
2023-05-12T03:04:40.029Z,9.10
2023-05-12T03:07:08.026Z,10.07
2023-05-12T03:09:35.762Z,9.38
2023-05-12T03:12:05.289Z,9.68
2023-05-12T03:14:33.088Z,10.25
2023-05-12T03:17:00.866Z,10.65
2023-05-12T03:19:28.687Z,10.15
2023-05-12T03:21:57.056Z,9.05
2023-05-12T03:24:24.880Z,9.27
2023-05-12T03:26:52.646Z,9.75
2023-05-12T03:29:21.837Z,8.77
2023-05-12T03:31:49.677Z,9.23
2023-05-12T03:34:17.479Z,8.27
2023-05-12T03:36:45.512Z,9.82
2023-05-12T03:39:13.237Z,9.52
2023-05-12T03:41:41.042Z,8.43
2023-05-12T03:44:09.924Z,8.82
2023-05-12T03:46:39.104Z,9.18
2023-05-12T03:49:06.915Z,8.15
2023-05-12T03:51:34.592Z,8.70
2023-05-12T03:54:02.294Z,7.90
2023-05-12T03:56:30.208Z,9.30
2023-05-12T03:58:58.346Z,9.52
2023-05-12T04:01:26.128Z,9.18
2023-05-12T04:03:55.340Z,9.90
2023-05-12T04:06:23.188Z,10.00
2023-05-12T04:08:50.907Z,10.23
2023-05-12T04:11:18.651Z,10.93
2023-05-12T04:13:46.386Z,11.27
2023-05-12T04:16:14.195Z,10.80
2023-05-12T04:18:42.108Z,10.38
2023-05-12T04:21:11.302Z,9.73
2023-05-12T04:23:40.311Z,9.95
2023-05-12T04:26:08.076Z,10.20
2023-05-12T04:28:36.872Z,9.98
2023-05-12T04:31:05.346Z,9.95
2023-05-12T04:33:33.078Z,9.65
2023-05-12T04:36:01.368Z,10.40
2023-05-12T04:38:30.476Z,10.52
2023-05-12T04:41:01.276Z,9.60
2023-05-12T04:46:00.390Z,9.68
2023-05-12T04:48:28.429Z,10.32
2023-05-12T04:50:56.733Z,9.25
2023-05-12T04:53:24.438Z,10.10
2023-05-12T04:55:53.845Z,11.00
2023-05-12T04:58:21.601Z,10.43
2023-05-12T05:00:49.466Z,9.93
2023-05-12T05:03:17.529Z,9.00
2023-05-12T05:05:45.861Z,10.63
2023-05-12T05:08:13.554Z,10.05
2023-05-12T05:10:41.292Z,10.32
2023-05-12T05:13:10.407Z,9.70
2023-05-12T05:15:38.153Z,10.75
2023-05-12T05:18:06.326Z,9.88
2023-05-12T05:20:34.953Z,10.38
2023-05-12T05:23:03.068Z,10.50
2023-05-12T05:25:30.800Z,10.90
2023-05-12T05:27:58.552Z,10.23
2023-05-12T05:30:27.715Z,9.43
2023-05-12T05:32:55.476Z,11.77
2023-05-12T05:35:23.269Z,10.98
2023-05-12T05:37:53.616Z,10.02
2023-05-12T05:40:21.680Z,10.27
2023-05-12T05:42:49.397Z,10.77
2023-05-12T05:45:17.334Z,9.73
2023-05-12T05:47:49.745Z,9.85
2023-05-12T05:50:17.617Z,9.27
2023-05-12T05:52:45.381Z,8.32
2023-05-12T05:55:13.197Z,8.60
2023-05-12T05:57:41.153Z,8.00
2023-05-12T06:00:10.258Z,7.88
2023-05-12T06:02:38.140Z,8.70
2023-05-12T06:05:08.132Z,7.32
2023-05-12T06:07:35.875Z,7.72
2023-05-12T06:10:04.112Z,7.60
2023-05-12T06:12:31.844Z,8.30
2023-05-12T06:14:59.545Z,7.00
2023-05-12T06:17:27.580Z,7.75
2023-05-12T06:19:55.302Z,8.45
2023-05-12T06:22:24.920Z,6.75
2023-05-12T06:24:53.300Z,7.30
2023-05-12T06:27:21.013Z,6.85
2023-05-12T06:29:48.704Z,5.78
2023-05-12T06:32:16.486Z,6.05
2023-05-12T06:34:44.298Z,6.97
2023-05-12T06:37:12.372Z,7.05
2023-05-12T06:39:41.578Z,6.45
2023-05-12T06:42:09.456Z,5.72
2023-05-12T06:44:38.482Z,4.85
2023-05-12T06:47:07.674Z,4.88
2023-05-12T06:49:37.120Z,3.90
2023-05-12T06:52:05.628Z,5.80
2023-05-12T06:54:33.584Z,4.28
2023-05-12T06:57:02.709Z,6.20
2023-05-12T06:59:30.818Z,5.60
2023-05-12T07:01:58.821Z,3.80
2023-05-12T07:04:26.840Z,4.22
2023-05-12T07:06:54.668Z,4.13
2023-05-12T07:09:22.359Z,3.08
2023-05-12T07:11:51.018Z,2.80
2023-05-12T07:14:20.118Z,2.75
2023-05-12T07:16:47.874Z,2.90
2023-05-12T07:19:15.620Z,3.13
2023-05-12T07:21:44.338Z,3.05
2023-05-12T07:24:12.251Z,3.10
2023-05-12T07:26:40.013Z,3.17
2023-05-12T07:29:13.427Z,2.92
2023-05-12T07:31:45.779Z,3.15
2023-05-12T07:34:13.536Z,2.50
2023-05-12T07:36:41.378Z,3.00
2023-05-12T07:39:09.113Z,3.50
2023-05-12T07:41:36.897Z,5.20
2023-05-12T07:44:04.714Z,4.10
2023-05-12T07:46:32.441Z,3.03
2023-05-12T07:49:01.554Z,3.30
2023-05-12T07:51:29.455Z,2.95
2023-05-12T07:53:58.031Z,3.10
2023-05-12T07:56:25.899Z,3.42
2023-05-12T07:58:53.676Z,3.35
2023-05-12T08:01:24.794Z,3.10
2023-05-12T08:03:54.813Z,3.13
2023-05-12T08:06:25.937Z,3.72
2023-05-12T08:08:58.446Z,3.55
2023-05-12T08:11:28.384Z,3.15
2023-05-12T08:13:58.037Z,3.35
2023-05-12T08:16:27.848Z,3.50
2023-05-12T08:18:57.499Z,3.10
2023-05-12T08:21:29.431Z,3.13
2023-05-12T08:23:59.163Z,3.28
2023-05-12T08:26:28.747Z,2.67
2023-05-12T08:28:58.278Z,3.33
2023-05-12T08:31:28.108Z,3.40
2023-05-12T08:34:09.166Z,3.20
2023-05-12T08:36:42.013Z,2.90
2023-05-12T08:39:12.201Z,2.65
2023-05-12T08:41:46.516Z,3.03
2023-05-12T08:44:17.836Z,3.03
2023-05-12T08:46:48.928Z,2.90
2023-05-12T08:49:22.922Z,2.85
2023-05-12T08:51:58.060Z,3.13
2023-05-12T08:54:30.492Z,3.05
2023-05-12T08:59:33.515Z,3.00
2023-05-12T09:02:04.365Z,3.42
2023-05-12T09:04:32.990Z,3.00
2023-05-12T09:07:02.224Z,3.08
2023-05-12T09:09:32.668Z,2.90
2023-05-12T09:12:01.749Z,3.17
2023-05-12T09:14:31.983Z,2.85
2023-05-12T09:17:03.794Z,3.40
2023-05-12T09:19:32.534Z,3.00
2023-05-12T09:22:01.999Z,3.10
2023-05-12T09:24:36.350Z,3.35
2023-05-12T09:27:04.890Z,3.55
2023-05-12T09:29:37.495Z,3.95
2023-05-12T09:32:10.073Z,3.63
2023-05-12T09:34:40.876Z,4.22
2023-05-12T09:37:11.854Z,3.60
2023-05-12T09:39:40.474Z,3.53
2023-05-12T09:42:13.169Z,3.55
2023-05-12T09:44:41.995Z,3.90
2023-05-12T09:47:10.720Z,3.30
2023-05-12T09:49:38.615Z,3.28
2023-05-12T09:52:06.868Z,4.65
2023-05-12T09:54:36.353Z,4.53
2023-05-12T09:57:05.725Z,4.40
2023-05-12T09:59:36.170Z,3.67
2023-05-12T10:02:07.358Z,3.25
2023-05-12T10:04:43.427Z,3.35
2023-05-12T10:07:14.053Z,3.85
2023-05-12T10:09:45.123Z,3.83
2023-05-12T10:12:13.484Z,3.88
2023-05-12T10:14:42.019Z,2.95
2023-05-12T10:17:10.962Z,2.80
2023-05-12T10:19:40.983Z,3.00
2023-05-12T10:22:10.982Z,3.30
2023-05-12T10:24:40.379Z,3.33
2023-05-12T10:27:09.628Z,2.90
2023-05-12T10:29:39.649Z,2.75
2023-05-12T10:32:07.443Z,3.47
2023-05-12T10:34:36.578Z,2.63
2023-05-12T10:37:08.172Z,2.67
2023-05-12T10:39:36.020Z,3.08
2023-05-12T10:42:07.187Z,4.15
2023-05-12T10:44:36.745Z,30.92
2023-05-12T10:47:14.024Z,9.60
2023-05-12T10:49:42.264Z,27.85
2023-05-12T10:52:12.520Z,20.45
2023-05-12T10:54:44.184Z,4.03
2023-05-12T10:57:18.880Z,3.10
2023-05-12T10:59:52.704Z,3.00
2023-05-12T11:02:27.692Z,3.00
2023-05-12T11:04:58.957Z,3.17
2023-05-12T11:07:28.131Z,3.15
2023-05-12T11:09:59.650Z,3.08
2023-05-12T11:12:32.327Z,2.90
2023-05-12T11:15:03.239Z,5.15
2023-05-12T11:17:31.662Z,6.07
2023-05-12T11:20:00.658Z,7.65
2023-05-12T11:22:28.381Z,3.50
2023-05-12T11:24:56.310Z,3.13
2023-05-12T11:27:24.358Z,2.88
2023-05-12T11:29:58.741Z,2.90
2023-05-12T11:32:28.263Z,2.40
2023-05-12T11:34:56.217Z,2.80
2023-05-12T11:37:24.193Z,3.13
2023-05-12T11:39:52.881Z,2.88
2023-05-12T11:42:22.316Z,4.78
2023-05-12T11:44:52.884Z,2.85
2023-05-12T11:47:21.250Z,2.30
2023-05-12T11:49:52.214Z,2.72
2023-05-12T11:52:22.583Z,2.28
2023-05-12T11:54:51.455Z,2.60
2023-05-12T11:57:27.673Z,2.78
2023-05-12T12:00:00.148Z,2.30
2023-05-12T12:02:28.594Z,2.70
2023-05-12T12:04:57.879Z,2.80
2023-05-12T12:07:32.421Z,2.85
2023-05-12T12:10:11.064Z,2.75
2023-05-12T12:12:38.806Z,2.80
2023-05-12T12:15:07.747Z,2.28
2023-05-12T12:17:35.565Z,2.13
2023-05-12T12:20:05.096Z,2.50
2023-05-12T12:22:34.369Z,4.30
2023-05-12T12:25:03.038Z,3.97
2023-05-12T12:27:30.808Z,1.98
2023-05-12T12:29:58.696Z,2.28
2023-05-12T12:32:27.000Z,2.60
2023-05-12T12:34:59.418Z,2.33
2023-05-12T12:37:28.560Z,2.05
2023-05-12T12:39:56.321Z,2.28
2023-05-12T12:42:24.088Z,2.15
2023-05-12T12:44:52.452Z,2.33
2023-05-12T12:47:20.356Z,2.20
2023-05-12T12:49:48.199Z,2.30
2023-05-12T12:52:16.200Z,2.22
2023-05-12T12:54:45.395Z,2.15
2023-05-12T12:57:13.235Z,3.20
2023-05-12T12:59:41.057Z,2.45
2023-05-12T13:02:09.233Z,2.25
2023-05-12T13:04:36.969Z,2.08
2023-05-12T13:07:05.797Z,2.00
2023-05-12T13:09:33.610Z,2.30
2023-05-12T13:12:03.264Z,2.55
2023-05-12T13:14:31.356Z,2.30
2023-05-12T13:16:59.288Z,1.95
2023-05-12T13:19:27.377Z,1.67
2023-05-12T13:21:55.097Z,1.95
2023-05-12T13:24:22.926Z,2.50
2023-05-12T13:26:51.492Z,2.17
2023-05-12T13:29:20.726Z,2.28
2023-05-12T13:31:48.549Z,2.10
2023-05-12T13:34:16.606Z,2.00
2023-05-12T13:36:44.330Z,2.30
2023-05-12T13:39:12.522Z,1.92
2023-05-12T13:41:40.306Z,1.33
2023-05-12T13:44:08.356Z,1.42
2023-05-12T13:46:37.519Z,1.70
2023-05-12T13:49:05.308Z,1.83
2023-05-12T13:51:33.169Z,2.63
2023-05-12T13:54:00.882Z,1.63
2023-05-12T13:56:28.578Z,2.30
2023-05-12T13:58:56.292Z,1.83
2023-05-12T14:01:24.156Z,1.77
2023-05-12T14:03:53.320Z,1.80
2023-05-12T14:06:21.095Z,1.75
2023-05-12T14:08:49.060Z,1.80
2023-05-12T14:11:16.927Z,1.80
2023-05-12T14:13:44.725Z,1.70
2023-05-12T14:16:13.858Z,1.50
2023-05-12T14:18:43.323Z,1.70
2023-05-12T14:21:12.924Z,1.90
2023-05-12T14:23:40.699Z,1.52
2023-05-12T14:26:08.495Z,1.80
2023-05-12T14:28:38.460Z,1.70
2023-05-12T14:31:06.649Z,1.50
2023-05-12T14:33:34.375Z,1.17
2023-05-12T14:36:07.537Z,1.85
2023-05-12T14:38:37.825Z,1.45
2023-05-12T14:41:07.990Z,1.05
2023-05-12T14:43:35.756Z,1.00
2023-05-12T14:46:04.380Z,0.90
2023-05-12T14:48:32.214Z,1.20
2023-05-12T14:51:00.205Z,0.80
2023-05-12T14:53:28.016Z,1.10
2023-05-12T14:55:57.168Z,0.80
2023-05-12T14:58:25.014Z,0.80
2023-05-12T15:00:52.996Z,0.80
2023-05-12T15:03:21.608Z,1.10
2023-05-12T15:08:21.315Z,1.02
2023-05-12T15:10:49.486Z,0.75
2023-05-12T15:13:20.383Z,1.00
2023-05-12T15:15:48.309Z,0.60
2023-05-12T15:18:16.180Z,0.70
2023-05-12T15:20:44.329Z,0.80
2023-05-12T15:23:12.044Z,0.80
2023-05-12T15:25:41.034Z,0.60
2023-05-12T15:28:08.868Z,0.95
2023-05-12T15:30:38.010Z,0.80
2023-05-12T15:33:06.505Z,0.80
2023-05-12T15:35:34.599Z,0.95
2023-05-12T15:38:02.337Z,1.30
2023-05-12T15:40:30.612Z,0.85
2023-05-12T15:42:58.421Z,0.90
2023-05-12T15:45:26.210Z,1.02
2023-05-12T15:47:56.226Z,0.60
2023-05-12T15:50:24.501Z,0.85
2023-05-12T15:52:52.226Z,0.98
2023-05-12T15:55:20.452Z,0.88
2023-05-12T15:57:48.304Z,0.60
2023-05-12T16:00:17.035Z,0.68
2023-05-12T16:02:44.998Z,0.70
2023-05-12T16:05:14.150Z,0.60
2023-05-12T16:07:42.394Z,0.40
2023-05-12T16:10:10.900Z,0.40
2023-05-12T16:12:38.696Z,1.83
2023-05-12T16:15:07.212Z,0.50
2023-05-12T16:17:34.987Z,1.30
2023-05-12T16:20:02.903Z,0.50
2023-05-12T16:22:31.970Z,0.35
2023-05-12T16:24:59.707Z,0.60
2023-05-12T16:27:27.485Z,0.52
2023-05-12T16:29:55.393Z,0.70
2023-05-12T16:32:23.186Z,0.65
2023-05-12T16:34:51.005Z,0.52
2023-05-12T16:37:18.785Z,0.80
2023-05-12T16:39:47.906Z,0.50
2023-05-12T16:42:15.703Z,0.60
2023-05-12T16:44:43.463Z,0.47
2023-05-12T16:47:11.268Z,0.50
2023-05-12T16:49:39.163Z,0.70
2023-05-12T16:52:07.381Z,0.63
2023-05-12T16:54:35.823Z,0.43
2023-05-12T16:57:05.130Z,0.70
2023-05-12T16:59:32.954Z,4.65
2023-05-12T17:02:01.961Z,10.65
2023-05-12T17:04:29.969Z,11.55
2023-05-12T17:06:57.907Z,8.02
2023-05-12T17:09:25.797Z,8.73
2023-05-12T17:11:53.590Z,4.78
2023-05-12T17:14:23.339Z,0.50
2023-05-12T17:16:51.537Z,1.15
2023-05-12T17:19:21.125Z,0.50
2023-05-12T17:21:49.160Z,0.57
2023-05-12T17:24:17.678Z,0.65
2023-05-12T17:26:45.799Z,0.30
2023-05-12T17:29:13.886Z,0.70
2023-05-12T17:31:43.027Z,0.47
2023-05-12T17:34:11.047Z,1.48
2023-05-12T17:36:38.821Z,1.27
2023-05-12T17:39:06.803Z,1.02
2023-05-12T17:41:34.516Z,0.60
2023-05-12T17:44:02.234Z,0.50
2023-05-12T17:46:29.979Z,0.40
2023-05-12T17:48:59.073Z,0.50
2023-05-12T17:51:26.813Z,1.65
2023-05-12T17:53:54.557Z,0.40
2023-05-12T17:56:22.328Z,0.60
2023-05-12T17:58:50.230Z,0.52
2023-05-12T18:01:18.107Z,1.20
2023-05-12T18:03:45.924Z,0.70
2023-05-12T18:06:15.620Z,1.10
2023-05-12T18:08:43.480Z,0.40
2023-05-12T18:11:11.285Z,0.60
2023-05-12T18:13:39.052Z,0.60
2023-05-12T18:16:12.798Z,0.45
2023-05-12T18:18:49.419Z,1.67
2023-05-12T18:21:18.833Z,0.93
2023-05-12T18:23:46.946Z,0.88
2023-05-12T18:26:14.696Z,0.50
2023-05-12T18:28:43.649Z,0.55
2023-05-12T18:33:42.313Z,0.80
2023-05-12T18:36:10.719Z,0.90
2023-05-12T18:38:39.923Z,0.55
2023-05-12T18:41:08.106Z,0.50
2023-05-12T18:43:36.144Z,0.60
2023-05-12T18:46:04.452Z,0.60
2023-05-12T18:48:32.981Z,0.43
2023-05-12T18:51:01.234Z,2.00
2023-05-12T18:53:29.025Z,1.20
2023-05-12T18:55:58.480Z,1.60
2023-05-12T18:58:26.264Z,0.70
2023-05-12T19:00:54.190Z,0.60
2023-05-12T19:03:21.942Z,0.70
2023-05-12T19:05:49.708Z,0.77
2023-05-12T19:08:19.792Z,1.20
2023-05-12T19:10:48.839Z,0.93
2023-05-12T19:13:17.967Z,0.68
2023-05-12T19:15:45.864Z,0.60
2023-05-12T19:18:13.924Z,0.80
2023-05-12T19:20:42.229Z,0.90
2023-05-12T19:23:10.479Z,0.93
2023-05-12T19:25:38.229Z,0.95
2023-05-12T19:28:06.588Z,0.70
2023-05-12T19:30:35.709Z,3.15
2023-05-12T19:33:03.571Z,3.10
2023-05-12T19:35:31.462Z,4.70
2023-05-12T19:37:59.323Z,1.50
2023-05-12T19:40:27.343Z,2.80
2023-05-12T19:42:55.270Z,7.57
2023-05-12T19:45:23.454Z,7.53
2023-05-12T19:47:53.039Z,3.45
2023-05-12T19:50:21.151Z,2.45
2023-05-12T19:52:49.095Z,2.42
2023-05-12T19:55:17.015Z,1.13
2023-05-12T19:57:44.844Z,2.15
2023-05-12T20:00:13.758Z,1.20
2023-05-12T20:02:42.199Z,1.10
2023-05-12T20:05:11.635Z,1.38
2023-05-12T20:07:39.937Z,0.95
2023-05-12T20:10:08.959Z,2.33
2023-05-12T20:12:36.797Z,1.52
2023-05-12T20:15:05.027Z,1.27
2023-05-12T20:17:32.822Z,4.03
2023-05-12T20:20:01.296Z,2.10
2023-05-12T20:22:30.613Z,2.38
2023-05-12T20:25:04.013Z,1.30
2023-05-12T20:27:32.012Z,1.20
2023-05-12T20:30:00.197Z,1.77
2023-05-12T20:32:27.964Z,1.30
2023-05-12T20:34:55.738Z,1.42
2023-05-12T20:37:23.505Z,1.73
2023-05-12T20:39:52.665Z,1.75
2023-05-12T20:42:20.924Z,1.23
2023-05-12T20:44:48.924Z,6.32
2023-05-12T20:47:16.759Z,4.13
2023-05-12T20:49:44.984Z,2.50
2023-05-12T20:52:12.820Z,2.20
2023-05-12T20:54:40.645Z,4.45
2023-05-12T20:57:10.180Z,1.90
2023-05-12T20:59:39.174Z,1.77
2023-05-12T21:02:07.703Z,1.60
2023-05-12T21:04:35.639Z,1.60
2023-05-12T21:07:03.415Z,1.70
2023-05-12T21:09:31.260Z,2.60
2023-05-12T21:11:59.047Z,1.42
2023-05-12T21:14:28.202Z,2.10
2023-05-12T21:16:56.095Z,1.00
2023-05-12T21:19:23.904Z,1.95
2023-05-12T21:21:51.854Z,6.63
2023-05-12T21:24:19.637Z,2.70
2023-05-12T21:26:47.985Z,1.25
2023-05-12T21:29:15.740Z,4.07
2023-05-12T21:31:44.960Z,1.50
2023-05-12T21:34:12.751Z,1.80
2023-05-12T21:36:40.497Z,1.70
2023-05-12T21:39:08.976Z,1.33
2023-05-12T21:41:38.324Z,1.50
2023-05-12T21:44:06.285Z,2.03
2023-05-12T21:46:34.638Z,3.20
2023-05-12T21:49:03.776Z,2.47
2023-05-12T21:51:32.981Z,3.00
2023-05-12T21:54:00.779Z,3.88
2023-05-12T21:56:28.558Z,1.80
2023-05-12T21:58:56.333Z,2.25
2023-05-12T22:01:24.138Z,2.03
2023-05-12T22:03:52.097Z,1.20
2023-05-12T22:06:21.307Z,1.75
2023-05-12T22:08:49.018Z,1.73
2023-05-12T22:11:17.257Z,2.47
2023-05-12T22:13:45.010Z,1.35
2023-05-12T22:16:12.867Z,1.58
2023-05-12T22:18:43.278Z,1.40
2023-05-12T22:21:11.933Z,1.60
2023-05-12T22:23:42.045Z,1.70
2023-05-12T22:26:09.860Z,1.92
2023-05-12T22:28:37.780Z,2.10
2023-05-12T22:31:05.570Z,1.48
2023-05-12T22:33:33.398Z,1.88
2023-05-12T22:36:01.276Z,1.63
2023-05-12T22:38:29.234Z,1.67
2023-05-12T22:40:58.450Z,1.85
2023-05-12T22:43:26.231Z,1.65
2023-05-12T22:45:55.731Z,2.00
2023-05-12T22:48:23.796Z,1.70
2023-05-12T22:50:54.655Z,2.00
2023-05-12T22:53:22.397Z,1.40
2023-05-12T22:55:50.296Z,1.33
2023-05-12T22:58:19.304Z,1.50
2023-05-12T23:00:47.270Z,1.50
2023-05-12T23:03:15.086Z,2.10
2023-05-12T23:05:42.811Z,1.83
2023-05-12T23:08:10.657Z,1.35
2023-05-12T23:10:38.556Z,1.70
2023-05-12T23:13:06.334Z,1.98
2023-05-12T23:15:35.628Z,1.70
2023-05-12T23:18:03.538Z,1.65
2023-05-12T23:20:31.881Z,1.70
2023-05-12T23:22:59.710Z,1.70
2023-05-12T23:25:27.474Z,1.48
2023-05-12T23:27:55.785Z,1.60
2023-05-12T23:30:23.777Z,2.05
2023-05-12T23:32:53.243Z,2.40
2023-05-12T23:35:20.949Z,2.33
2023-05-12T23:37:48.792Z,2.35
2023-05-12T23:40:16.712Z,2.63
2023-05-12T23:42:44.501Z,2.60
2023-05-12T23:45:12.773Z,3.13
2023-05-12T23:47:40.581Z,2.63
2023-05-12T23:50:10.690Z,2.90
2023-05-12T23:52:38.698Z,2.17
2023-05-12T23:55:07.450Z,2.50
2023-05-12T23:57:35.943Z,2.80
